Finikia — YKRO — position and weather

sailwx.info

Track history (hours):
 
Tides and Currents Weather Stations Pressure Air Temp Water Temp Dewpoint Dewpoint Depression Visibility Wind Speed Wind Dir Waves Ship Positions

Finikia

Last reported at 2017-Feb-27 01:16 UTC. Time now 2017-Feb-27 06:54 UTC.
Position N 34°54' E 035°52'.

Length 138 m; draft 6 m.

Type: Cargo ship. MMSI: 468395000.

Date/timePositionNaut miles runAvg speedWind from/ knotsBaromVisibWave heightAir tempDewpointWater temp
2017-Feb-27 01:16N 34°54' E 035°52'0 0.0
2017-Feb-27 00:31N 34°54' E 035°52'0 0.0
2017-Feb-26 23:16N 34°54' E 035°52'0 0.0
2017-Feb-26 19:25N 34°54' E 035°52'0 0.0
2017-Feb-26 18:31N 34°54' E 035°52'0 0.0
2017-Feb-26 17:28N 34°54' E 035°52'0 0.0
2017-Feb-26 16:31N 34°54' E 035°52'0 0.0
2017-Feb-26 15:31N 34°54' E 035°52'0 0.0
2017-Feb-26 14:31N 34°54' E 035°52'0 0.0
2017-Feb-26 13:16N 34°54' E 035°52'0 0.0
2017-Feb-26 12:04N 34°54' E 035°52'0 0.0
2017-Feb-26 11:31N 34°54' E 035°52'0 0.0
2017-Feb-26 10:31N 34°54' E 035°52'0 0.0
2017-Feb-25 20:07N 34°54' E 035°52'0 0.0
2017-Feb-25 19:31N 34°54' E 035°52'0 0.0
2017-Feb-25 18:31N 34°54' E 035°52'0 0.0
2017-Feb-25 17:31N 34°54' E 035°52'0 0.0
2017-Feb-25 16:25N 34°54' E 035°52'0 0.0
2017-Feb-25 15:28N 34°54' E 035°52'0 0.0
2017-Feb-25 12:31N 34°54' E 035°52'  
2017-Feb-22 12:31N 37°30' E 025°55'  
2017-Feb-18 02:30N 44°30' E 037°36'9 9.9
2017-Feb-18 01:33N 44°36' E 037°47'5 5.4
2017-Feb-18 00:32N 44°40' E 037°51'0 0.1
2017-Feb-17 23:32N 44°41' E 037°51'0 0.0
2017-Feb-17 22:32N 44°41' E 037°51'0 0.0
2017-Feb-17 21:32N 44°41' E 037°51'0 0.0
2017-Feb-17 20:32N 44°41' E 037°51'0 0.0
2017-Feb-17 19:32N 44°41' E 037°51'0 0.0
2017-Feb-17 18:32N 44°40' E 037°51'2 2.0
2017-Feb-17 17:34N 44°42' E 037°49'2 2.2
2017-Feb-17 16:32N 44°44' E 037°47'0 0.0
2017-Feb-17 15:32N 44°44' E 037°47'0 0.0
2017-Feb-17 14:32N 44°44' E 037°47'0 0.0
2017-Feb-17 13:32N 44°44' E 037°47'0 0.0
2017-Feb-17 12:32N 44°44' E 037°47'0 0.0
2017-Feb-17 11:32N 44°44' E 037°47'0 0.0
2017-Feb-17 10:32N 44°44' E 037°47'0 0.0
2017-Feb-17 09:32N 44°44' E 037°47'0 0.0
2017-Feb-17 08:32N 44°44' E 037°47'0 0.0
2017-Feb-17 07:32N 44°44' E 037°47'0 0.0
2017-Feb-17 06:32N 44°44' E 037°47'0 0.0
2017-Feb-17 05:32N 44°44' E 037°47'0 0.0
2017-Feb-17 04:32N 44°44' E 037°47'0 0.0
2017-Feb-17 03:32N 44°44' E 037°47'0 0.0
2017-Feb-17 02:32N 44°44' E 037°47'0 0.0
2017-Feb-17 01:32N 44°44' E 037°47'  
Track history (hours):
 
Tides and Currents Weather Stations Pressure Air Temp Water Temp Dewpoint Dewpoint Depression Visibility Wind Speed Wind Dir Waves Ship Positions

Finikia

Last reported at 2017-Feb-27 01:16 UTC. Time now 2017-Feb-27 06:54 UTC.
Position N 34°54' E 035°52'.

Length 138 m; draft 6 m.

Type: Cargo ship. MMSI: 468395000.

Date/timePositionNaut miles runAvg speedWind from/ knotsBaromVisibWave heightAir tempDewpointWater temp
2017-Feb-27 01:16N 34°54' E 035°52'0 0.0
2017-Feb-27 00:31N 34°54' E 035°52'0 0.0
2017-Feb-26 23:16N 34°54' E 035°52'0 0.0
2017-Feb-26 19:25N 34°54' E 035°52'0 0.0
2017-Feb-26 18:31N 34°54' E 035°52'0 0.0
2017-Feb-26 17:28N 34°54' E 035°52'0 0.0
2017-Feb-26 16:31N 34°54' E 035°52'0 0.0
2017-Feb-26 15:31N 34°54' E 035°52'0 0.0
2017-Feb-26 14:31N 34°54' E 035°52'0 0.0
2017-Feb-26 13:16N 34°54' E 035°52'0 0.0
2017-Feb-26 12:04N 34°54' E 035°52'0 0.0
2017-Feb-26 11:31N 34°54' E 035°52'0 0.0
2017-Feb-26 10:31N 34°54' E 035°52'0 0.0
2017-Feb-25 20:07N 34°54' E 035°52'0 0.0
2017-Feb-25 19:31N 34°54' E 035°52'0 0.0
2017-Feb-25 18:31N 34°54' E 035°52'0 0.0
2017-Feb-25 17:31N 34°54' E 035°52'0 0.0
2017-Feb-25 16:25N 34°54' E 035°52'0 0.0
2017-Feb-25 15:28N 34°54' E 035°52'0 0.0
2017-Feb-25 12:31N 34°54' E 035°52'  
2017-Feb-22 12:31N 37°30' E 025°55'  
2017-Feb-18 02:30N 44°30' E 037°36'9 9.9
2017-Feb-18 01:33N 44°36' E 037°47'5 5.4
2017-Feb-18 00:32N 44°40' E 037°51'0 0.1
2017-Feb-17 23:32N 44°41' E 037°51'0 0.0
2017-Feb-17 22:32N 44°41' E 037°51'0 0.0
2017-Feb-17 21:32N 44°41' E 037°51'0 0.0
2017-Feb-17 20:32N 44°41' E 037°51'0 0.0
2017-Feb-17 19:32N 44°41' E 037°51'0 0.0
2017-Feb-17 18:32N 44°40' E 037°51'2 2.0
2017-Feb-17 17:34N 44°42' E 037°49'2 2.2
2017-Feb-17 16:32N 44°44' E 037°47'0 0.0
2017-Feb-17 15:32N 44°44' E 037°47'0 0.0
2017-Feb-17 14:32N 44°44' E 037°47'0 0.0
2017-Feb-17 13:32N 44°44' E 037°47'0 0.0
2017-Feb-17 12:32N 44°44' E 037°47'0 0.0
2017-Feb-17 11:32N 44°44' E 037°47'0 0.0
2017-Feb-17 10:32N 44°44' E 037°47'0 0.0
2017-Feb-17 09:32N 44°44' E 037°47'0 0.0
2017-Feb-17 08:32N 44°44' E 037°47'0 0.0
2017-Feb-17 07:32N 44°44' E 037°47'0 0.0
2017-Feb-17 06:32N 44°44' E 037°47'0 0.0
2017-Feb-17 05:32N 44°44' E 037°47'0 0.0
2017-Feb-17 04:32N 44°44' E 037°47'0 0.0
2017-Feb-17 03:32N 44°44' E 037°47'0 0.0
2017-Feb-17 02:32N 44°44' E 037°47'0 0.0
2017-Feb-17 01:32N 44°44' E 037°47'  

Dump ship's entire track history